Amery, Wisconsin
Current Conditions -  °F | °C
As of 12:15 PM on Tuesday 21 Oct 2014 (Local Time) from KRNH Reporting Station
Clear Clear  
Wind Chill: 51°   Ceiling: Unl
Heat Index: 51°   Visibility: 10mi
Dew Point: 37°   Wind: 7mph
Humidity: 59%   Direction: 120°ESE
Pressure: 30.22"   Gusts: NA
Location:  45.31°N, 92.36°W
Report Text: KRNH 211715Z AUTO 12006KT 10SM CLR 11/03 A3022 RMK AO2 T01060029
Loading
Personal Weather Stations






























Interactive Weather Map
Tropical Storm Tracking
New forecast layout! Learn more

10-Day Weather Forecast

Advertisements
Track Severe Weather on mobile